sensor_id;sensor_type;location;lat;lon;timestamp;pressure;altitude;pressure_sealevel;temperature;humidity
51759;BME280;66684;47.568;18.734;2023-02-23T00:01:39;99466.16;;;7.53;100.00
51759;BME280;66684;47.568;18.734;2023-02-23T00:04:05;99464.50;;;7.37;100.00
51759;BME280;66684;47.568;18.734;2023-02-23T00:06:33;99463.84;;;7.41;100.00
51759;BME280;66684;47.568;18.734;2023-02-23T00:09:01;99471.59;;;7.59;100.00
51759;BME280;66684;47.568;18.734;2023-02-23T00:11:31;99473.56;;;7.81;100.00
51759;BME280;66684;47.568;18.734;2023-02-23T00:13:58;99469.00;;;7.75;100.00
51759;BME280;66684;47.568;18.734;2023-02-23T00:16:25;99469.72;;;7.73;100.00
51759;BME280;66684;47.568;18.734;2023-02-23T00:19:00;99467.06;;;7.71;100.00
51759;BME280;66684;47.568;18.734;2023-02-23T00:21:29;99469.72;;;7.73;100.00
51759;BME280;66684;47.568;18.734;2023-02-23T00:24:00;99464.75;;;7.76;100.00
51759;BME280;66684;47.568;18.734;2023-02-23T00:26:29;99464.22;;;7.83;100.00
51759;BME280;66684;47.568;18.734;2023-02-23T00:28:56;99467.91;;;7.88;100.00
51759;BME280;66684;47.568;18.734;2023-02-23T00:31:24;99461.66;;;7.83;100.00
51759;BME280;66684;47.568;18.734;2023-02-23T00:33:56;99470.13;;;7.80;100.00
51759;BME280;66684;47.568;18.734;2023-02-23T00:36:28;99464.25;;;7.49;100.00
51759;BME280;66684;47.568;18.734;2023-02-23T00:38:57;99457.06;;;7.60;100.00
51759;BME280;66684;47.568;18.734;2023-02-23T00:41:25;99462.81;;;7.72;100.00
51759;BME280;66684;47.568;18.734;2023-02-23T00:43:54;99470.00;;;7.79;100.00
51759;BME280;66684;47.568;18.734;2023-02-23T00:46:23;99466.50;;;7.77;100.00
51759;BME280;66684;47.568;18.734;2023-02-23T00:48:50;99468.25;;;7.78;100.00
51759;BME280;66684;47.568;18.734;2023-02-23T00:51:17;99470.69;;;7.75;100.00
51759;BME280;66684;47.568;18.734;2023-02-23T00:53:43;99471.97;;;7.67;100.00
51759;BME280;66684;47.568;18.734;2023-02-23T00:56:12;99471.03;;;7.65;100.00
51759;BME280;66684;47.568;18.734;2023-02-23T00:58:38;99469.88;;;7.76;100.00
51759;BME280;66684;47.568;18.734;2023-02-23T01:01:09;99470.09;;;7.46;100.00
51759;BME280;66684;47.568;18.734;2023-02-23T01:03:36;99467.72;;;7.33;100.00
51759;BME280;66684;47.568;18.734;2023-02-23T01:06:05;99469.78;;;7.40;100.00
51759;BME280;66684;47.568;18.734;2023-02-23T01:08:32;99470.41;;;7.52;100.00
51759;BME280;66684;47.568;18.734;2023-02-23T01:11:05;99473.88;;;7.53;100.00
51759;BME280;66684;47.568;18.734;2023-02-23T01:13:31;99472.78;;;7.66;100.00
51759;BME280;66684;47.568;18.734;2023-02-23T01:15:57;99471.34;;;7.71;100.00
51759;BME280;66684;47.568;18.734;2023-02-23T01:18:23;99468.69;;;7.69;100.00
51759;BME280;66684;47.568;18.734;2023-02-23T01:20:49;99470.22;;;7.66;100.00
51759;BME280;66684;47.568;18.734;2023-02-23T01:23:15;99470.22;;;7.66;100.00
51759;BME280;66684;47.568;18.734;2023-02-23T01:25:43;99474.56;;;7.67;100.00
51759;BME280;66684;47.568;18.734;2023-02-23T01:28:10;99473.47;;;7.62;100.00
51759;BME280;66684;47.568;18.734;2023-02-23T01:30:36;99475.06;;;7.60;100.00
51759;BME280;66684;47.568;18.734;2023-02-23T01:33:03;99468.09;;;7.57;100.00
51759;BME280;66684;47.568;18.734;2023-02-23T01:35:29;99471.72;;;7.61;100.00
51759;BME280;66684;47.568;18.734;2023-02-23T01:37:55;99476.19;;;7.65;100.00
51759;BME280;66684;47.568;18.734;2023-02-23T01:40:23;99467.66;;;7.66;100.00
51759;BME280;66684;47.568;18.734;2023-02-23T01:43:09;99469.56;;;7.70;100.00
51759;BME280;66684;47.568;18.734;2023-02-23T01:45:38;99468.06;;;7.73;100.00
51759;BME280;66684;47.568;18.734;2023-02-23T01:48:19;99464.44;;;7.70;100.00
51759;BME280;66684;47.568;18.734;2023-02-23T01:50:53;99465.88;;;7.65;100.00
51759;BME280;66684;47.568;18.734;2023-02-23T01:53:21;99467.75;;;7.67;100.00
51759;BME280;66684;47.568;18.734;2023-02-23T01:55:50;99464.56;;;7.73;100.00
51759;BME280;66684;47.568;18.734;2023-02-23T01:58:21;99465.44;;;7.55;100.00
51759;BME280;66684;47.568;18.734;2023-02-23T02:00:51;99460.56;;;7.44;100.00
51759;BME280;66684;47.568;18.734;2023-02-23T02:03:26;99458.53;;;7.54;100.00
51759;BME280;66684;47.568;18.734;2023-02-23T02:05:55;99460.13;;;7.52;100.00
51759;BME280;66684;47.568;18.734;2023-02-23T02:08:22;99457.75;;;7.39;100.00
51759;BME280;66684;47.568;18.734;2023-02-23T02:10:52;99455.34;;;7.42;100.00
51759;BME280;66684;47.568;18.734;2023-02-23T02:13:23;99452.03;;;7.45;100.00
51759;BME280;66684;47.568;18.734;2023-02-23T02:27:39;99455.22;;;7.23;100.00
51759;BME280;66684;47.568;18.734;2023-02-23T02:35:44;99449.03;;;7.36;100.00
51759;BME280;66684;47.568;18.734;2023-02-23T02:41:17;99454.22;;;7.37;100.00
51759;BME280;66684;47.568;18.734;2023-02-23T02:44:08;99456.81;;;7.21;100.00
51759;BME280;66684;47.568;18.734;2023-02-23T02:46:43;99458.25;;;7.16;100.00
51759;BME280;66684;47.568;18.734;2023-02-23T02:49:21;99461.31;;;7.25;100.00
51759;BME280;66684;47.568;18.734;2023-02-23T02:51:59;99457.12;;;7.27;100.00
51759;BME280;66684;47.568;18.734;2023-02-23T02:54:46;99462.59;;;7.33;100.00
51759;BME280;66684;47.568;18.734;2023-02-23T02:57:14;99471.44;;;7.06;100.00
51759;BME280;66684;47.568;18.734;2023-02-23T02:59:47;99464.38;;;7.01;100.00
51759;BME280;66684;47.568;18.734;2023-02-23T03:02:37;99470.97;;;7.13;100.00
51759;BME280;66684;47.568;18.734;2023-02-23T03:05:25;99473.84;;;7.19;100.00
51759;BME280;66684;47.568;18.734;2023-02-23T03:08:47;99474.87;;;7.22;99.49
51759;BME280;66684;47.568;18.734;2023-02-23T03:11:38;99472.88;;;7.33;98.89
51759;BME280;66684;47.568;18.734;2023-02-23T03:15:16;99473.75;;;7.34;98.31
51759;BME280;66684;47.568;18.734;2023-02-23T03:18:21;99472.16;;;7.36;97.38
51759;BME280;66684;47.568;18.734;2023-02-23T03:21:20;99472.47;;;7.42;96.55
51759;BME280;66684;47.568;18.734;2023-02-23T03:24:14;99477.22;;;7.18;97.59
51759;BME280;66684;47.568;18.734;2023-02-23T03:27:17;99481.50;;;7.17;97.41
51759;BME280;66684;47.568;18.734;2023-02-23T03:30:28;99479.94;;;7.21;97.77
51759;BME280;66684;47.568;18.734;2023-02-23T03:33:18;99485.50;;;6.96;98.56
51759;BME280;66684;47.568;18.734;2023-02-23T03:36:16;99487.19;;;7.12;98.19
51759;BME280;66684;47.568;18.734;2023-02-23T03:42:10;99482.53;;;6.88;99.03
51759;BME280;66684;47.568;18.734;2023-02-23T03:44:58;99481.22;;;6.96;98.86
51759;BME280;66684;47.568;18.734;2023-02-23T03:47:45;99475.16;;;7.11;98.86
51759;BME280;66684;47.568;18.734;2023-02-23T03:50:35;99479.47;;;7.12;98.97
51759;BME280;66684;47.568;18.734;2023-02-23T03:53:27;99479.31;;;7.09;99.16
51759;BME280;66684;47.568;18.734;2023-02-23T03:56:17;99485.75;;;7.17;99.30
51759;BME280;66684;47.568;18.734;2023-02-23T03:59:05;99478.34;;;7.07;100.00
51759;BME280;66684;47.568;18.734;2023-02-23T04:01:52;99486.47;;;6.98;99.83
51759;BME280;66684;47.568;18.734;2023-02-23T04:04:39;99490.94;;;7.02;100.00
51759;BME280;66684;47.568;18.734;2023-02-23T04:07:25;99483.00;;;6.97;100.00
51759;BME280;66684;47.568;18.734;2023-02-23T04:10:11;99491.91;;;6.88;100.00
51759;BME280;66684;47.568;18.734;2023-02-23T04:13:06;99487.97;;;6.94;99.82
51759;BME280;66684;47.568;18.734;2023-02-23T04:16:06;99488.44;;;7.03;98.64
51759;BME280;66684;47.568;18.734;2023-02-23T04:18:35;99486.22;;;6.93;98.51
51759;BME280;66684;47.568;18.734;2023-02-23T04:21:03;99484.28;;;6.89;96.32
51759;BME280;66684;47.568;18.734;2023-02-23T04:23:29;99490.97;;;6.86;96.58
51759;BME280;66684;47.568;18.734;2023-02-23T04:25:56;99497.69;;;6.84;97.66
51759;BME280;66684;47.568;18.734;2023-02-23T04:28:23;99489.41;;;6.89;96.49
51759;BME280;66684;47.568;18.734;2023-02-23T04:30:50;99487.97;;;6.78;97.45
51759;BME280;66684;47.568;18.734;2023-02-23T04:33:20;99479.69;;;6.84;94.55
51759;BME280;66684;47.568;18.734;2023-02-23T04:35:47;99484.84;;;6.84;96.14
51759;BME280;66684;47.568;18.734;2023-02-23T04:38:13;99487.88;;;6.76;96.01
51759;BME280;66684;47.568;18.734;2023-02-23T04:40:38;99483.28;;;6.71;95.54
51759;BME280;66684;47.568;18.734;2023-02-23T04:43:04;99488.09;;;6.65;96.00
51759;BME280;66684;47.568;18.734;2023-02-23T04:45:30;99490.19;;;6.72;95.66
51759;BME280;66684;47.568;18.734;2023-02-23T04:47:56;99492.69;;;6.70;96.27
51759;BME280;66684;47.568;18.734;2023-02-23T04:50:22;99494.72;;;6.76;94.16
51759;BME280;66684;47.568;18.734;2023-02-23T04:52:48;99499.09;;;6.79;94.16
51759;BME280;66684;47.568;18.734;2023-02-23T04:55:20;99493.56;;;6.71;93.97
51759;BME280;66684;47.568;18.734;2023-02-23T04:57:47;99493.91;;;6.61;94.45
51759;BME280;66684;47.568;18.734;2023-02-23T05:00:14;99495.59;;;6.60;95.01
51759;BME280;66684;47.568;18.734;2023-02-23T05:02:40;99492.91;;;6.59;95.99
51759;BME280;66684;47.568;18.734;2023-02-23T05:05:07;99495.59;;;6.60;95.18
51759;BME280;66684;47.568;18.734;2023-02-23T05:07:35;99493.91;;;6.61;94.72
51759;BME280;66684;47.568;18.734;2023-02-23T05:10:01;99496.03;;;6.53;95.56
51759;BME280;66684;47.568;18.734;2023-02-23T05:12:27;99492.09;;;6.43;97.07
51759;BME280;66684;47.568;18.734;2023-02-23T05:14:53;99495.12;;;6.36;97.94
51759;BME280;66684;47.568;18.734;2023-02-23T05:17:19;99491.03;;;6.40;97.68
51759;BME280;66684;47.568;18.734;2023-02-23T05:19:45;99493.34;;;6.35;97.55
51759;BME280;66684;47.568;18.734;2023-02-23T05:22:10;99494.78;;;6.30;97.61
51759;BME280;66684;47.568;18.734;2023-02-23T05:24:40;99487.22;;;6.33;97.67
51759;BME280;66684;47.568;18.734;2023-02-23T05:27:08;99494.31;;;6.37;96.65
51759;BME280;66684;47.568;18.734;2023-02-23T05:29:34;99496.41;;;6.44;96.60
51759;BME280;66684;47.568;18.734;2023-02-23T05:32:00;99504.44;;;6.51;94.98
51759;BME280;66684;47.568;18.734;2023-02-23T05:34:26;99501.06;;;6.52;94.68
51759;BME280;66684;47.568;18.734;2023-02-23T05:36:52;99502.47;;;6.61;94.40
51759;BME280;66684;47.568;18.734;2023-02-23T05:39:19;99501.94;;;6.67;95.25
51759;BME280;66684;47.568;18.734;2023-02-23T05:41:45;99508.97;;;6.71;95.12
51759;BME280;66684;47.568;18.734;2023-02-23T05:44:12;99504.56;;;6.68;94.85
51759;BME280;66684;47.568;18.734;2023-02-23T05:46:38;99510.06;;;6.60;94.91
51759;BME280;66684;47.568;18.734;2023-02-23T05:49:04;99511.34;;;6.52;96.48
51759;BME280;66684;47.568;18.734;2023-02-23T05:51:31;99513.03;;;6.51;96.57
51759;BME280;66684;47.568;18.734;2023-02-23T05:53:57;99506.06;;;6.48;94.92
51759;BME280;66684;47.568;18.734;2023-02-23T05:56:24;99514.88;;;6.54;93.39
51759;BME280;66684;47.568;18.734;2023-02-23T05:58:52;99514.25;;;6.58;94.03
51759;BME280;66684;47.568;18.734;2023-02-23T06:01:19;99523.56;;;6.56;94.99
51759;BME280;66684;47.568;18.734;2023-02-23T06:03:46;99522.03;;;6.59;95.08
51759;BME280;66684;47.568;18.734;2023-02-23T06:06:12;99521.59;;;6.52;95.76
51759;BME280;66684;47.568;18.734;2023-02-23T06:08:39;99524.84;;;6.47;96.57
51759;BME280;66684;47.568;18.734;2023-02-23T06:11:05;99528.00;;;6.43;96.94
51759;BME280;66684;47.568;18.734;2023-02-23T06:13:31;99533.31;;;6.46;95.43
51759;BME280;66684;47.568;18.734;2023-02-23T06:15:58;99536.25;;;6.38;96.31
51759;BME280;66684;47.568;18.734;2023-02-23T06:18:25;99540.84;;;6.43;96.79
51759;BME280;66684;47.568;18.734;2023-02-23T06:20:51;99545.53;;;6.51;96.82
51759;BME280;66684;47.568;18.734;2023-02-23T06:23:17;99545.53;;;6.51;96.56
51759;BME280;66684;47.568;18.734;2023-02-23T06:25:45;99550.72;;;6.67;96.34
51759;BME280;66684;47.568;18.734;2023-02-23T06:28:11;99553.16;;;6.80;95.47
51759;BME280;66684;47.568;18.734;2023-02-23T06:30:37;99548.97;;;6.82;95.00
51759;BME280;66684;47.568;18.734;2023-02-23T06:33:04;99557.00;;;6.88;94.62
51759;BME280;66684;47.568;18.734;2023-02-23T06:35:30;99563.34;;;6.95;93.12
51759;BME280;66684;47.568;18.734;2023-02-23T06:37:58;99556.78;;;7.00;92.50
51759;BME280;66684;47.568;18.734;2023-02-23T06:40:24;99565.69;;;7.07;91.63
51759;BME280;66684;47.568;18.734;2023-02-23T06:42:50;99574.53;;;7.12;91.37
51759;BME280;66684;47.568;18.734;2023-02-23T06:45:16;99573.66;;;7.11;91.42
51759;BME280;66684;47.568;18.734;2023-02-23T06:47:44;99573.87;;;7.16;91.58
51759;BME280;66684;47.568;18.734;2023-02-23T06:50:12;99576.78;;;7.22;90.28
51759;BME280;66684;47.568;18.734;2023-02-23T06:52:39;99586.25;;;7.07;91.10
51759;BME280;66684;47.568;18.734;2023-02-23T06:55:05;99577.84;;;6.78;91.65
51759;BME280;66684;47.568;18.734;2023-02-23T06:57:31;99580.50;;;6.80;91.64
51759;BME280;66684;47.568;18.734;2023-02-23T06:59:57;99578.38;;;6.72;92.18
51759;BME280;66684;47.568;18.734;2023-02-23T07:02:23;99579.66;;;6.64;92.09
51759;BME280;66684;47.568;18.734;2023-02-23T07:04:49;99577.00;;;6.63;90.76
51759;BME280;66684;47.568;18.734;2023-02-23T07:07:15;99582.13;;;6.63;92.13
51759;BME280;66684;47.568;18.734;2023-02-23T07:09:41;99585.31;;;6.59;91.46
51759;BME280;66684;47.568;18.734;2023-02-23T07:12:08;99587.28;;;6.63;93.76
51759;BME280;66684;47.568;18.734;2023-02-23T07:14:35;99588.66;;;6.72;91.20
51759;BME280;66684;47.568;18.734;2023-02-23T07:17:03;99592.91;;;6.72;93.28
51759;BME280;66684;47.568;18.734;2023-02-23T07:19:31;99593.09;;;6.75;93.56
51759;BME280;66684;47.568;18.734;2023-02-23T07:21:57;99592.41;;;6.63;92.36
51759;BME280;66684;47.568;18.734;2023-02-23T07:24:23;99590.97;;;6.68;92.06
51759;BME280;66684;47.568;18.734;2023-02-23T07:26:49;99600.38;;;6.67;90.99
51759;BME280;66684;47.568;18.734;2023-02-23T07:29:16;99602.13;;;6.68;89.69
51759;BME280;66684;47.568;18.734;2023-02-23T07:31:42;99596.13;;;6.68;89.93
51759;BME280;66684;47.568;18.734;2023-02-23T07:34:08;99600.31;;;6.82;87.21
51759;BME280;66684;47.568;18.734;2023-02-23T07:36:35;99598.91;;;6.87;86.78
51759;BME280;66684;47.568;18.734;2023-02-23T07:39:01;99603.69;;;6.81;88.16
51759;BME280;66684;47.568;18.734;2023-02-23T07:41:27;99611.66;;;6.86;86.30
51759;BME280;66684;47.568;18.734;2023-02-23T07:43:53;99600.03;;;6.92;86.53
51759;BME280;66684;47.568;18.734;2023-02-23T07:46:19;99604.37;;;6.93;87.70
51759;BME280;66684;47.568;18.734;2023-02-23T07:48:45;99600.53;;;7.01;84.53
51759;BME280;66684;47.568;18.734;2023-02-23T07:51:13;99604.87;;;7.02;85.24
51759;BME280;66684;47.568;18.734;2023-02-23T07:53:40;99600.78;;;7.06;84.03
51759;BME280;66684;47.568;18.734;2023-02-23T07:56:08;99596.34;;;7.03;84.62
51759;BME280;66684;47.568;18.734;2023-02-23T07:58:40;99595.81;;;7.09;82.98
51759;BME280;66684;47.568;18.734;2023-02-23T08:01:07;99596.69;;;7.10;83.46
51759;BME280;66684;47.568;18.734;2023-02-23T08:03:34;99591.88;;;7.16;81.89
51759;BME280;66684;47.568;18.734;2023-02-23T08:06:00;99600.66;;;7.19;81.81
51759;BME280;66684;47.568;18.734;2023-02-23T08:08:26;99603.03;;;7.16;81.98
51759;BME280;66684;47.568;18.734;2023-02-23T08:11:03;99599.75;;;7.35;82.58
51759;BME280;66684;47.568;18.734;2023-02-23T08:13:31;99597.75;;;7.46;81.48
51759;BME280;66684;47.568;18.734;2023-02-23T08:15:57;99601.53;;;7.52;81.33
51759;BME280;66684;47.568;18.734;2023-02-23T08:18:23;99596.16;;;7.48;79.86
51759;BME280;66684;47.568;18.734;2023-02-23T08:20:50;99599.69;;;7.50;79.17
51759;BME280;66684;47.568;18.734;2023-02-23T08:23:21;99596.47;;;7.54;79.98
51759;BME280;66684;47.568;18.734;2023-02-23T08:25:47;99602.66;;;7.57;78.99
51759;BME280;66684;47.568;18.734;2023-02-23T08:28:13;99606.84;;;7.39;76.11
51759;BME280;66684;47.568;18.734;2023-02-23T08:30:40;99606.03;;;7.40;76.48
51759;BME280;66684;47.568;18.734;2023-02-23T08:33:06;99604.91;;;7.51;76.78
51759;BME280;66684;47.568;18.734;2023-02-23T08:35:32;99609.25;;;7.52;77.92
51759;BME280;66684;47.568;18.734;2023-02-23T08:37:58;99609.91;;;7.65;77.66
51759;BME280;66684;47.568;18.734;2023-02-23T08:40:24;99611.34;;;7.76;78.71
51759;BME280;66684;47.568;18.734;2023-02-23T08:42:50;99612.72;;;7.69;77.19
51759;BME280;66684;47.568;18.734;2023-02-23T08:45:17;99615.66;;;7.77;76.23
51759;BME280;66684;47.568;18.734;2023-02-23T08:47:43;99612.06;;;7.73;76.42
51759;BME280;66684;47.568;18.734;2023-02-23T08:50:10;99615.53;;;7.57;75.81
51759;BME280;66684;47.568;18.734;2023-02-23T08:52:37;99619.06;;;7.60;76.42
51759;BME280;66684;47.568;18.734;2023-02-23T08:55:04;99616.66;;;7.63;76.10
51759;BME280;66684;47.568;18.734;2023-02-23T08:57:34;99615.03;;;7.65;74.00
51759;BME280;66684;47.568;18.734;2023-02-23T09:00:01;99615.53;;;7.74;75.27
51759;BME280;66684;47.568;18.734;2023-02-23T09:02:27;99623.47;;;7.78;74.45
51759;BME280;66684;47.568;18.734;2023-02-23T09:04:52;99618.72;;;7.86;74.48
51759;BME280;66684;47.568;18.734;2023-02-23T09:07:20;99624.97;;;7.91;74.82
51759;BME280;66684;47.568;18.734;2023-02-23T09:09:55;99624.97;;;7.91;74.87
51759;BME280;66684;47.568;18.734;2023-02-23T09:12:21;99625.84;;;7.92;73.16
51759;BME280;66684;47.568;18.734;2023-02-23T09:14:47;99624.97;;;7.91;73.91
51759;BME280;66684;47.568;18.734;2023-02-23T09:17:13;99625.78;;;7.90;75.10
51759;BME280;66684;47.568;18.734;2023-02-23T09:19:39;99630.59;;;8.00;73.38
51759;BME280;66684;47.568;18.734;2023-02-23T09:22:05;99634.87;;;8.00;73.34
51759;BME280;66684;47.568;18.734;2023-02-23T09:24:31;99627.22;;;8.01;72.93
51759;BME280;66684;47.568;18.734;2023-02-23T09:26:57;99631.88;;;8.08;73.24
51759;BME280;66684;47.568;18.734;2023-02-23T09:29:23;99629.16;;;8.05;72.28
51759;BME280;66684;47.568;18.734;2023-02-23T09:31:49;99630.59;;;8.00;72.50
51759;BME280;66684;47.568;18.734;2023-02-23T09:34:20;99635.00;;;8.03;72.71
51759;BME280;66684;47.568;18.734;2023-02-23T09:36:46;99632.50;;;8.04;73.84
51759;BME280;66684;47.568;18.734;2023-02-23T09:39:12;99634.44;;;8.08;73.08
51759;BME280;66684;47.568;18.734;2023-02-23T09:41:43;99631.06;;;8.09;72.00
51759;BME280;66684;47.568;18.734;2023-02-23T09:49:45;99632.28;;;8.34;74.68
51759;BME280;66684;47.568;18.734;2023-02-23T09:52:18;99630.72;;;8.36;75.44
51759;BME280;66684;47.568;18.734;2023-02-23T09:54:45;99636.63;;;8.51;75.09
51759;BME280;66684;47.568;18.734;2023-02-23T09:57:18;99637.44;;;8.50;72.44
51759;BME280;66684;47.568;18.734;2023-02-23T09:59:45;99638.09;;;8.46;70.96
51759;BME280;66684;47.568;18.734;2023-02-23T10:02:22;99636.00;;;8.39;71.19
51759;BME280;66684;47.568;18.734;2023-02-23T10:04:51;99644.56;;;8.38;71.23
51759;BME280;66684;47.568;18.734;2023-02-23T10:07:25;99634.84;;;8.50;72.15
51759;BME280;66684;47.568;18.734;2023-02-23T10:10:15;99641.78;;;8.51;72.67
51759;BME280;66684;47.568;18.734;2023-02-23T10:15:43;99642.72;;;8.53;72.03
51759;BME280;66684;47.568;18.734;2023-02-23T10:21:45;99632.78;;;8.43;72.04
51759;BME280;66684;47.568;18.734;2023-02-23T10:26:56;99633.69;;;8.44;71.46
51759;BME280;66684;47.568;18.734;2023-02-23T10:29:31;99628.91;;;8.51;73.10
51759;BME280;66684;47.568;18.734;2023-02-23T10:32:26;99634.84;;;8.50;71.05
51759;BME280;66684;47.568;18.734;2023-02-23T10:34:58;99628.44;;;8.42;73.79
51759;BME280;66684;47.568;18.734;2023-02-23T10:37:24;99624.12;;;8.59;72.73
51759;BME280;66684;47.568;18.734;2023-02-23T10:39:51;99619.25;;;8.47;71.17
51759;BME280;66684;47.568;18.734;2023-02-23T10:42:22;99624.56;;;8.50;73.11
51759;BME280;66684;47.568;18.734;2023-02-23T10:44:53;99624.03;;;8.57;71.43
51759;BME280;66684;47.568;18.734;2023-02-23T10:47:25;99623.22;;;8.58;72.56
51759;BME280;66684;47.568;18.734;2023-02-23T10:49:53;99623.22;;;8.58;72.55
51759;BME280;66684;47.568;18.734;2023-02-23T10:52:41;99614.56;;;8.56;70.93
51759;BME280;66684;47.568;18.734;2023-02-23T10:55:28;99617.06;;;8.55;71.81
51759;BME280;66684;47.568;18.734;2023-02-23T10:58:15;99609.91;;;8.49;71.12
51759;BME280;66684;47.568;18.734;2023-02-23T11:01:03;99602.19;;;8.49;72.57
51759;BME280;66684;47.568;18.734;2023-02-23T11:03:41;99600.50;;;8.50;73.65
51759;BME280;66684;47.568;18.734;2023-02-23T11:06:38;99603.09;;;8.50;72.15
51759;BME280;66684;47.568;18.734;2023-02-23T11:12:01;99599.09;;;8.56;72.25
51759;BME280;66684;47.568;18.734;2023-02-23T11:14:29;99591.56;;;8.61;71.70
51759;BME280;66684;47.568;18.734;2023-02-23T11:16:56;99591.72;;;8.46;71.91
51759;BME280;66684;47.568;18.734;2023-02-23T11:19:30;99589.91;;;8.61;73.60
51759;BME280;66684;47.568;18.734;2023-02-23T11:21:59;99580.53;;;8.81;74.28
51759;BME280;66684;47.568;18.734;2023-02-23T11:24:27;99583.03;;;8.80;71.50
51759;BME280;66684;47.568;18.734;2023-02-23T11:26:58;99579.09;;;8.69;71.11
51759;BME280;66684;47.568;18.734;2023-02-23T11:29:39;99575.53;;;8.67;71.29
51759;BME280;66684;47.568;18.734;2023-02-23T11:32:11;99577.16;;;8.64;71.60
51759;BME280;66684;47.568;18.734;2023-02-23T11:34:38;99573.84;;;8.67;71.76
51759;BME280;66684;47.568;18.734;2023-02-23T11:39:54;99574.13;;;8.91;71.79
51759;BME280;66684;47.568;18.734;2023-02-23T11:45:02;99565.38;;;8.87;70.88
51759;BME280;66684;47.568;18.734;2023-02-23T11:47:31;99571.69;;;8.94;70.75
51759;BME280;66684;47.568;18.734;2023-02-23T11:49:58;99570.66;;;8.90;71.60
51759;BME280;66684;47.568;18.734;2023-02-23T11:52:25;99559.75;;;8.96;71.17
51759;BME280;66684;47.568;18.734;2023-02-23T11:54:56;99566.13;;;9.04;71.96
51759;BME280;66684;47.568;18.734;2023-02-23T11:57:28;99567.16;;;9.08;69.69
51759;BME280;66684;47.568;18.734;2023-02-23T11:59:56;99557.97;;;9.13;70.22
51759;BME280;66684;47.568;18.734;2023-02-23T12:02:28;99557.47;;;9.22;70.28
51759;BME280;66684;47.568;18.734;2023-02-23T12:05:17;99555.72;;;9.21;69.98
51759;BME280;66684;47.568;18.734;2023-02-23T12:07:53;99549.75;;;9.22;71.02
51759;BME280;66684;47.568;18.734;2023-02-23T12:10:49;99550.28;;;9.14;70.06
51759;BME280;66684;47.568;18.734;2023-02-23T12:16:02;99536.63;;;9.36;70.63
51759;BME280;66684;47.568;18.734;2023-02-23T12:22:04;99528.37;;;9.43;68.59
51759;BME280;66684;47.568;18.734;2023-02-23T12:24:38;99524.09;;;9.44;69.08
51759;BME280;66684;47.568;18.734;2023-02-23T12:32:53;99522.13;;;9.79;68.27
51759;BME280;66684;47.568;18.734;2023-02-23T12:35:29;99514.97;;;9.71;68.68
51759;BME280;66684;47.568;18.734;2023-02-23T12:41:09;99505.63;;;9.94;68.48
51759;BME280;66684;47.568;18.734;2023-02-23T12:44:09;99504.78;;;9.95;67.59
51759;BME280;66684;47.568;18.734;2023-02-23T12:46:49;99505.91;;;10.02;68.86
51759;BME280;66684;47.568;18.734;2023-02-23T12:54:34;99485.59;;;9.89;67.31
51759;BME280;66684;47.568;18.734;2023-02-23T13:02:24;99482.50;;;10.18;68.66
51759;BME280;66684;47.568;18.734;2023-02-23T13:07:38;99473.31;;;10.25;67.61
51759;BME280;66684;47.568;18.734;2023-02-23T13:13:05;99469.38;;;10.35;66.84
51759;BME280;66684;47.568;18.734;2023-02-23T13:15:49;99473.97;;;10.42;67.12
51759;BME280;66684;47.568;18.734;2023-02-23T13:18:41;99473.13;;;10.43;66.43
51759;BME280;66684;47.568;18.734;2023-02-23T13:21:26;99478.53;;;10.49;66.88
51759;BME280;66684;47.568;18.734;2023-02-23T13:24:13;99473.13;;;10.43;66.85
51759;BME280;66684;47.568;18.734;2023-02-23T13:29:42;99474.50;;;10.56;67.96
51759;BME280;66684;47.568;18.734;2023-02-23T13:32:15;99463.03;;;10.49;65.08
51759;BME280;66684;47.568;18.734;2023-02-23T13:34:52;99462.88;;;10.44;65.79
51759;BME280;66684;47.568;18.734;2023-02-23T13:37:41;99467.97;;;10.43;67.78
51759;BME280;66684;47.568;18.734;2023-02-23T13:45:54;99465.47;;;10.44;68.44
51759;BME280;66684;47.568;18.734;2023-02-23T13:51:37;99460.81;;;10.36;68.61
51759;BME280;66684;47.568;18.734;2023-02-23T13:54:29;99460.66;;;10.31;66.81
51759;BME280;66684;47.568;18.734;2023-02-23T13:56:59;99463.97;;;10.29;66.32
51759;BME280;66684;47.568;18.734;2023-02-23T13:59:30;99467.50;;;10.31;66.94
51759;BME280;66684;47.568;18.734;2023-02-23T14:07:58;99465.97;;;10.36;66.23
51759;BME280;66684;47.568;18.734;2023-02-23T14:10:29;99469.28;;;10.32;66.92
51759;BME280;66684;47.568;18.734;2023-02-23T14:18:28;99460.94;;;10.39;67.65
51759;BME280;66684;47.568;18.734;2023-02-23T14:21:04;99476.44;;;10.39;69.04
51759;BME280;66684;47.568;18.734;2023-02-23T14:23:53;99466.22;;;10.21;67.01
51759;BME280;66684;47.568;18.734;2023-02-23T14:31:56;99463.22;;;10.10;66.88
51759;BME280;66684;47.568;18.734;2023-02-23T14:34:42;99461.47;;;10.09;67.05
51759;BME280;66684;47.568;18.734;2023-02-23T14:40:14;99458.56;;;10.02;66.40
51759;BME280;66684;47.568;18.734;2023-02-23T14:42:45;99457.81;;;10.04;68.05
51759;BME280;66684;47.568;18.734;2023-02-23T14:45:31;99456.81;;;10.00;68.17
51759;BME280;66684;47.568;18.734;2023-02-23T14:48:04;99447.31;;;9.99;69.23
51759;BME280;66684;47.568;18.734;2023-02-23T14:50:33;99460.03;;;9.95;69.87
51759;BME280;66684;47.568;18.734;2023-02-23T14:53:00;99454.47;;;9.86;69.16
51759;BME280;66684;47.568;18.734;2023-02-23T14:55:30;99447.44;;;9.82;68.36
51759;BME280;66684;47.568;18.734;2023-02-23T14:57:57;99456.00;;;9.81;69.43
51759;BME280;66684;47.568;18.734;2023-02-23T15:00:30;99456.44;;;9.70;71.50
51759;BME280;66684;47.568;18.734;2023-02-23T15:03:06;99456.56;;;9.73;71.01
51759;BME280;66684;47.568;18.734;2023-02-23T15:05:49;99453.34;;;9.79;69.41
51759;BME280;66684;47.568;18.734;2023-02-23T15:08:27;99455.50;;;9.68;69.65
51759;BME280;66684;47.568;18.734;2023-02-23T15:11:04;99456.03;;;9.61;69.92
51759;BME280;66684;47.568;18.734;2023-02-23T15:13:34;99464.03;;;9.67;70.83